Time;durP1;ratioP1;P1;durP2;ratioP2;P2;SDS_P1;SDS_P2;PMS_P1;PMS_P2;Temp;Humidity;BMP_temperature;BMP_pressure;BME280_temperature;BME280_humidity;BME280_pressure;Samples;Min_cycle;Max_cycle;Signal;HPM_P1;HPM_P2
2023/01/02 00:02:16;;;;;;;;;;;;;;;9.19;95.19;96697.03;5073124;28;19962;-74
2023/01/02 00:04:42;;;;;;;;;;;;;;;9.21;95.44;96703.66;5073070;28;20046;-74
2023/01/02 00:07:08;;;;;;;;;;;;;;;9.21;94.92;96697.63;5073207;28;19989;-73
2023/01/02 00:09:34;;;;;;;;;;;;;;;9.23;94.79;96691.16;5072984;28;19949;-73
2023/01/02 00:12:00;;;;;;;;;;;;;;;9.24;94.45;96684.94;5072970;28;19948;-74
2023/01/02 00:14:26;;;;;;;;;;;;;;;9.26;94.61;96687.34;5073008;28;20469;-74
2023/01/02 00:16:52;;;;;;;;;;;;;;;9.27;94.40;96681.13;5072982;28;20006;-74
2023/01/02 00:19:18;;;;;;;;;;;;;;;9.24;94.79;96676.28;5072210;28;19949;-74
2023/01/02 00:21:43;;;;;;;;;;;;;;;9.22;95.74;96675.66;5072801;28;20409;-73
2023/01/02 00:24:09;;;;;;;;;;;;;;;9.17;95.22;96671.03;5073106;28;20363;-74
2023/01/02 00:26:35;;;;;;;;;;;;;;;9.12;96.13;96676.09;5073295;28;20052;-74
2023/01/02 00:29:01;;;;;;;;;;;;;;;9.07;96.52;96666.25;5073992;28;20284;-74
2023/01/02 00:31:27;;;;;;;;;;;;;;;9.02;96.89;96670.47;5076506;28;20011;-73
2023/01/02 00:34:11;;;;;;;;;;;;;;;8.96;96.95;96666.03;5076416;28;20430;-73
2023/01/02 00:36:37;;;;;;;;;;;;;;;8.88;97.12;96667.03;5076409;28;19981;-74
2023/01/02 00:39:03;;;;;;;;;;;;;;;8.84;97.30;96674.50;5076213;28;19962;-74
2023/01/02 00:41:29;;;;;;;;;;;;;;;8.81;97.81;96672.28;5075512;28;19962;-73
2023/01/02 00:43:55;;;;;;;;;;;;;;;8.78;98.03;96670.06;5076043;28;20029;-74
2023/01/02 00:46:22;;;;;;;;;;;;;;;8.76;97.92;96666.84;5076436;28;20466;-73
2023/01/02 00:48:47;;;;;;;;;;;;;;;8.73;98.37;96670.69;5076037;28;19956;-74
2023/01/02 00:51:13;;;;;;;;;;;;;;;8.71;98.08;96680.53;5076430;28;19946;-74
2023/01/02 00:53:39;;;;;;;;;;;;;;;8.66;97.98;96669.84;5076019;28;20338;-74
2023/01/02 00:56:05;;;;;;;;;;;;;;;8.62;98.08;96670.44;5076085;28;20412;-74
2023/01/02 00:58:31;;;;;;;;;;;;;;;8.59;98.06;96670.84;5075859;28;20273;-74
2023/01/02 01:00:57;;;;;;;;;;;;;;;8.56;98.39;96679.09;5075971;28;19954;-74
2023/01/02 01:03:23;;;;;;;;;;;;;;;8.53;98.85;96688.16;5076256;28;19945;-74
2023/01/02 01:05:48;;;;;;;;;;;;;;;8.49;99.12;96679.09;5075373;28;19955;-74
2023/01/02 01:08:14;;;;;;;;;;;;;;;8.48;99.18;96678.28;5057768;28;19949;-74
2023/01/02 01:10:40;;;;;;;;;;;;;;;8.47;99.17;96675.88;5075775;28;19946;-74
2023/01/02 01:13:06;;;;;;;;;;;;;;;8.44;99.07;96679.69;5075514;28;20483;-75
2023/01/02 01:15:32;;;;;;;;;;;;;;;8.44;99.46;96684.09;5076128;28;19988;-73
2023/01/02 01:17:58;;;;;;;;;;;;;;;8.44;99.51;96686.69;5075340;28;19960;-73
2023/01/02 01:20:24;;;;;;;;;;;;;;;8.41;99.44;96672.22;5075744;28;19953;-73
2023/01/02 01:22:50;;;;;;;;;;;;;;;8.40;99.35;96681.06;5075545;28;19949;-73
2023/01/02 01:25:16;;;;;;;;;;;;;;;8.38;99.75;96679.63;5075269;28;19952;-73
2023/01/02 01:27:42;;;;;;;;;;;;;;;8.34;99.84;96687.88;5075308;28;20017;-74
2023/01/02 01:30:08;;;;;;;;;;;;;;;8.36;100.00;96686.84;5075284;28;20049;-73
2023/01/02 01:32:34;;;;;;;;;;;;;;;8.33;100.00;96691.47;5075372;28;19958;-73
2023/01/02 01:35:00;;;;;;;;;;;;;;;8.32;100.00;96689.88;5075519;28;19961;-74
2023/01/02 01:37:25;;;;;;;;;;;;;;;8.32;100.00;96687.25;5075038;28;20034;-75
2023/01/02 01:39:51;;;;;;;;;;;;;;;8.48;100.00;96678.28;5075002;28;19996;-73
2023/01/02 01:42:18;;;;;;;;;;;;;;;8.52;100.00;96674.28;5074184;28;19949;-73
2023/01/02 01:44:46;;;;;;;;;;;;;;;8.54;100.00;96684.50;5075094;28;19951;-73
2023/01/02 01:47:17;;;;;;;;;;;;;;;8.51;100.00;96680.50;5075247;28;20055;-74
2023/01/02 01:49:44;;;;;;;;;;;;;;;8.49;100.00;96682.50;5075091;28;19970;-74
2023/01/02 01:52:14;;;;;;;;;;;;;;;8.48;100.00;96675.69;5074749;28;19952;-74
2023/01/02 01:54:47;;;;;;;;;;;;;;;8.51;99.28;96677.88;5075034;28;19950;-75
2023/01/02 01:57:19;;;;;;;;;;;;;;;8.56;99.31;96671.25;5075148;28;19948;-73
2023/01/02 01:59:46;;;;;;;;;;;;;;;8.60;99.10;96669.84;5075182;28;19954;-73
2023/01/02 02:02:12;;;;;;;;;;;;;;;8.61;99.06;96664.44;5074645;28;20408;-73
2023/01/02 02:04:39;;;;;;;;;;;;;;;8.63;99.07;96667.66;5074768;28;20405;-74
2023/01/02 02:07:05;;;;;;;;;;;;;;;8.65;98.85;96662.19;5074379;28;19952;-74
2023/01/02 02:09:36;;;;;;;;;;;;;;;8.65;99.26;96672.66;5056787;28;20057;-73
2023/01/02 02:12:02;;;;;;;;;;;;;;;8.63;99.54;96669.44;5074007;28;19949;-74
2023/01/02 02:14:28;;;;;;;;;;;;;;;8.61;99.25;96671.44;5061705;28;19958;-74
2023/01/02 02:17:24;;;;;;;;;;;;;;;8.62;98.91;96673.06;5074356;28;20464;-73
2023/01/02 02:20:02;;;;;;;;;;;;;;;8.65;98.66;96660.41;5056784;28;19954;-74
2023/01/02 02:22:44;;;;;;;;;;;;;;;8.70;98.58;96659.81;5074403;28;19953;-73
2023/01/02 02:25:28;;;;;;;;;;;;;;;8.73;98.11;96648.94;5074302;28;20399;-73
2023/01/02 02:27:57;;;;;;;;;;;;;;;8.81;97.45;96643.50;5074100;28;19960;-74
2023/01/02 02:30:26;;;;;;;;;;;;;;;8.85;97.02;96644.72;5074491;28;19951;-74
2023/01/02 02:33:05;;;;;;;;;;;;;;;8.90;96.71;96636.25;5073941;28;20427;-74
2023/01/02 02:35:41;;;;;;;;;;;;;;;8.94;96.50;96638.28;5074144;28;19947;-73
2023/01/02 02:38:09;;;;;;;;;;;;;;;8.94;96.23;96633.06;5073744;28;19971;-74
2023/01/02 02:40:41;;;;;;;;;;;;;;;8.95;96.04;96633.84;5074620;28;19959;-73
2023/01/02 02:43:19;;;;;;;;;;;;;;;8.94;96.01;96624.38;5073901;28;20407;-74
2023/01/02 02:45:51;;;;;;;;;;;;;;;8.91;96.50;96624.81;5074143;28;19944;-74
2023/01/02 02:48:25;;;;;;;;;;;;;;;8.87;97.11;96624.41;5064033;28;19945;-74
2023/01/02 02:50:54;;;;;;;;;;;;;;;8.83;96.71;96622.41;5066619;28;20314;-74
2023/01/02 02:53:22;;;;;;;;;;;;;;;8.79;96.68;96624.59;5073754;28;19976;-74
2023/01/02 02:55:50;;;;;;;;;;;;;;;8.76;96.69;96618.97;5074049;28;20343;-73
2023/01/02 02:58:18;;;;;;;;;;;;;;;8.76;96.07;96616.34;5073700;28;20312;-75
2023/01/02 03:00:43;;;;;;;;;;;;;;;8.85;100.00;96638.69;5073906;28;19953;-75
2023/01/02 03:03:20;;;;;;;;;;;;;;;8.97;100.00;96624.00;5055625;28;20043;-74
2023/01/02 03:06:04;;;;;;;;;;;;;;;8.97;97.28;96617.97;5073950;28;19951;-74
2023/01/02 03:08:49;;;;;;;;;;;;;;;8.90;97.16;96615.34;5073621;28;19951;-73
2023/01/02 03:11:15;;;;;;;;;;;;;;;8.86;95.37;96614.13;5073506;28;20417;-74
2023/01/02 03:13:46;;;;;;;;;;;;;;;8.81;96.02;96609.50;5073528;28;20014;-74
2023/01/02 03:16:18;;;;;;;;;;;;;;;8.80;95.34;96601.88;5073643;28;19947;-75
2023/01/02 03:18:47;;;;;;;;;;;;;;;8.77;95.83;96610.13;5073818;28;19968;-75
2023/01/02 03:21:20;;;;;;;;;;;;;;;8.73;96.02;96602.69;5073436;28;19956;-74
2023/01/02 03:23:47;;;;;;;;;;;;;;;8.73;94.94;96600.09;5073573;28;19967;-74
2023/01/02 03:26:15;;;;;;;;;;;;;;;8.74;95.21;96609.53;5073231;28;19944;-74
2023/01/02 03:28:43;;;;;;;;;;;;;;;8.76;96.21;96613.72;5073492;28;19961;-74
2023/01/02 03:31:12;;;;;;;;;;;;;;;8.72;96.68;96622.00;5073939;28;19954;-74
2023/01/02 03:33:42;;;;;;;;;;;;;;;8.66;96.72;96622.78;5073332;28;19961;-74
2023/01/02 03:36:12;;;;;;;;;;;;;;;8.62;96.40;96623.41;5073327;28;19958;-74
2023/01/02 03:38:40;;;;;;;;;;;;;;;8.58;95.69;96622.19;5073559;28;19948;-74
2023/01/02 03:41:24;;;;;;;;;;;;;;;8.58;96.99;96628.22;5073224;28;19955;-74
2023/01/02 03:43:52;;;;;;;;;;;;;;;8.52;96.82;96627.22;5073299;28;19952;-73
2023/01/02 03:46:18;;;;;;;;;;;;;;;8.49;97.26;96624.19;5073307;28;19965;-73
2023/01/02 03:48:55;;;;;;;;;;;;;;;8.45;97.72;96633.44;5073215;28;19948;-74
2023/01/02 03:51:21;;;;;;;;;;;;;;;8.42;98.14;96642.50;5055360;28;19972;-74
2023/01/02 03:53:48;;;;;;;;;;;;;;;8.39;96.89;96626.38;5073215;28;19979;-73
2023/01/02 03:56:33;;;;;;;;;;;;;;;8.37;98.14;96639.63;5073200;28;19953;-74
2023/01/02 03:59:08;;;;;;;;;;;;;;;8.34;96.18;96622.53;5073203;28;19955;-73
2023/01/02 04:01:46;;;;;;;;;;;;;;;8.34;97.31;96635.59;5073135;28;19950;-74
2023/01/02 04:04:15;;;;;;;;;;;;;;;8.32;96.73;96627.16;5074855;28;20315;-74
2023/01/02 04:06:43;;;;;;;;;;;;;;;8.31;97.29;96629.97;5076872;28;20423;-74
2023/01/02 04:09:13;;;;;;;;;;;;;;;8.29;97.64;96626.75;5076723;28;19950;-74
2023/01/02 04:11:41;;;;;;;;;;;;;;;8.27;97.96;96628.75;5076361;28;19954;-74
2023/01/02 04:14:16;;;;;;;;;;;;;;;8.24;97.77;96616.91;5076883;28;19963;-73
2023/01/02 04:16:43;;;;;;;;;;;;;;;8.23;97.80;96619.69;5076844;28;20291;-74
2023/01/02 04:19:16;;;;;;;;;;;;;;;8.19;98.51;96614.09;5076510;28;19954;-74
2023/01/02 04:21:45;;;;;;;;;;;;;;;8.18;97.42;96611.66;5076761;28;19949;-74
2023/01/02 04:24:15;;;;;;;;;;;;;;;8.15;97.69;96612.88;5076452;28;20326;-74
2023/01/02 04:26:46;;;;;;;;;;;;;;;8.11;98.07;96607.22;5077168;28;20302;-74
2023/01/02 04:29:12;;;;;;;;;;;;;;;8.09;98.71;96609.22;5076341;28;20308;-74
2023/01/02 04:31:45;;;;;;;;;;;;;;;8.10;98.80;96612.63;5076746;28;19966;-74
2023/01/02 04:34:12;;;;;;;;;;;;;;;8.09;98.92;96613.66;5076373;28;19962;-74
2023/01/02 04:36:39;;;;;;;;;;;;;;;8.09;98.84;96619.69;5076311;28;19972;-74
2023/01/02 04:39:05;;;;;;;;;;;;;;;8.09;98.60;96613.66;5076160;28;19946;-74
2023/01/02 04:41:32;;;;;;;;;;;;;;;8.09;96.90;96606.63;5076685;28;19980;-74
2023/01/02 04:43:58;;;;;;;;;;;;;;;8.11;97.80;96617.69;5076225;28;19953;-74
2023/01/02 04:46:25;;;;;;;;;;;;;;;8.12;96.70;96614.03;5076544;28;19952;-74
2023/01/02 04:48:53;;;;;;;;;;;;;;;8.12;96.27;96615.88;5076305;28;20443;-74
2023/01/02 04:51:18;;;;;;;;;;;;;;;8.16;96.39;96618.88;5076177;28;19949;-75
2023/01/02 04:53:51;;;;;;;;;;;;;;;8.15;95.86;96618.09;5075813;28;20434;-74
2023/01/02 04:56:17;;;;;;;;;;;;;;;8.13;95.99;96615.66;5076376;28;20318;-74
2023/01/02 04:58:44;;;;;;;;;;;;;;;8.11;96.18;96619.50;5075721;28;20045;-74
2023/01/02 05:01:10;;;;;;;;;;;;;;;8.07;96.87;96616.47;5075897;28;20337;-75
2023/01/02 05:03:40;;;;;;;;;;;;;;;8.06;97.46;96624.50;5076004;28;19946;-74
2023/01/02 05:06:06;;;;;;;;;;;;;;;8.02;97.24;96626.72;5075870;28;19954;-75
2023/01/02 05:08:32;;;;;;;;;;;;;;;8.00;97.73;96633.09;5075828;28;19946;-74
2023/01/02 05:11:03;;;;;;;;;;;;;;;7.97;97.64;96631.69;5076179;28;19961;-74
2023/01/02 05:13:29;;;;;;;;;;;;;;;7.95;97.21;96632.91;5075780;28;19959;-74
2023/01/02 05:15:55;;;;;;;;;;;;;;;7.93;97.04;96633.88;5074269;28;19957;-74
2023/01/02 05:18:21;;;;;;;;;;;;;;;7.92;97.27;96634.91;5075889;28;19946;-74
2023/01/02 05:20:47;;;;;;;;;;;;;;;7.90;97.93;96638.72;5075558;28;20027;-74
2023/01/02 05:25:58;;;;;;;;;;;;;;;7.88;98.50;96648.56;5075579;28;19961;-74
2023/01/02 05:28:24;;;;;;;;;;;;;;;7.87;97.50;96641.72;5075343;28;19956;-74
2023/01/02 05:30:50;;;;;;;;;;;;;;;7.85;97.45;96644.53;5075280;28;19957;-74
2023/01/02 05:33:16;;;;;;;;;;;;;;;7.89;97.38;96637.88;5075231;28;19961;-74
2023/01/02 05:35:41;;;;;;;;;;;;;;;7.96;97.32;96639.72;5075155;28;19946;-74
2023/01/02 05:38:07;;;;;;;;;;;;;;;7.98;96.81;96635.94;5075597;28;19984;-74
2023/01/02 05:40:33;;;;;;;;;;;;;;;8.04;96.35;96642.16;5057149;28;20408;-74
2023/01/02 05:42:59;;;;;;;;;;;;;;;8.10;96.46;96641.38;5075188;28;19950;-75
2023/01/02 05:45:25;;;;;;;;;;;;;;;8.12;96.11;96637.56;5074971;28;19961;-74
2023/01/02 05:47:51;;;;;;;;;;;;;;;8.23;95.81;96643.22;5074852;28;19957;-74
2023/01/02 05:50:17;;;;;;;;;;;;;;;8.33;94.94;96639.22;5075407;28;20042;-74
2023/01/02 05:52:43;;;;;;;;;;;;;;;8.44;94.77;96639.66;5074791;28;19956;-75
2023/01/02 05:55:09;;;;;;;;;;;;;;;8.52;93.67;96637.69;5074851;28;19974;-75
2023/01/02 05:57:35;;;;;;;;;;;;;;;8.65;93.14;96634.28;5074986;28;19947;-74
2023/01/02 06:00:01;;;;;;;;;;;;;;;8.71;91.93;96614.34;5074816;28;19957;-74
2023/01/02 06:02:26;;;;;;;;;;;;;;;8.78;92.46;96619.56;5074466;28;19966;-74
2023/01/02 06:04:52;;;;;;;;;;;;;;;8.80;92.25;96617.53;5074690;28;19970;-74
2023/01/02 06:07:18;;;;;;;;;;;;;;;8.79;92.31;96614.13;5074348;28;19958;-74
2023/01/02 06:09:44;;;;;;;;;;;;;;;8.77;91.89;96608.31;5074573;28;20019;-73
2023/01/02 06:12:10;;;;;;;;;;;;;;;8.74;92.60;96614.75;5074480;28;19954;-73
2023/01/02 06:14:36;;;;;;;;;;;;;;;8.70;92.87;96615.34;5074491;28;19962;-72
2023/01/02 06:17:02;;;;;;;;;;;;;;;8.65;92.55;96613.34;5074474;28;20360;-74
2023/01/02 06:19:28;;;;;;;;;;;;;;;8.63;93.04;96628.44;5074434;28;19999;-75
2023/01/02 06:21:53;;;;;;;;;;;;;;;8.57;93.61;96644.91;5074528;28;20416;-73
2023/01/02 06:24:19;;;;;;;;;;;;;;;8.52;93.64;96640.28;5074382;28;20003;-74
2023/01/02 06:26:45;;;;;;;;;;;;;;;8.48;94.19;96654.78;5056221;28;19950;-73
2023/01/02 06:29:11;;;;;;;;;;;;;;;8.46;94.14;96656.78;5074557;28;19958;-74
2023/01/02 06:31:37;;;;;;;;;;;;;;;8.42;94.49;96652.94;5073957;28;20311;-75
2023/01/02 06:34:03;;;;;;;;;;;;;;;8.40;95.13;96673.22;5074286;28;19973;-77
2023/01/02 06:36:30;;;;;;;;;;;;;;;8.36;95.30;96663.34;5073792;28;20064;-74
2023/01/02 06:38:56;;;;;;;;;;;;;;;8.33;94.76;96665.34;5073912;28;19948;-73
2023/01/02 06:41:22;;;;;;;;;;;;;;;8.32;95.22;96663.75;5074307;28;19994;-74
2023/01/02 06:43:49;;;;;;;;;;;;;;;8.29;95.17;96671.16;5073717;28;19949;-74
2023/01/02 06:46:15;;;;;;;;;;;;;;;8.27;95.38;96660.94;5074370;28;19955;-75
2023/01/02 06:48:42;;;;;;;;;;;;;;;8.26;95.58;96666.34;5074045;28;19959;-74
2023/01/02 06:51:10;;;;;;;;;;;;;;;8.26;95.27;96671.56;5074022;28;19957;-74
2023/01/02 06:53:37;;;;;;;;;;;;;;;8.29;95.00;96671.16;5060151;28;19944;-73
2023/01/02 06:56:03;;;;;;;;;;;;;;;8.33;95.17;96685.44;5073777;28;19951;-73
2023/01/02 06:58:30;;;;;;;;;;;;;;;8.36;94.62;96677.22;5073767;28;20312;-73
2023/01/02 07:01:00;;;;;;;;;;;;;;;8.36;94.87;96677.22;5073797;28;19978;-73
2023/01/02 07:03:26;;;;;;;;;;;;;;;8.36;94.85;96671.16;5073944;28;20429;-73
2023/01/02 07:05:52;;;;;;;;;;;;;;;8.35;95.62;96673.00;5074290;28;19957;-73
2023/01/02 07:08:18;;;;;;;;;;;;;;;8.33;96.13;96673.19;5073944;28;19954;-73
2023/01/02 07:10:44;;;;;;;;;;;;;;;8.30;95.42;96680.63;5073607;28;20336;-73
2023/01/02 07:13:09;;;;;;;;;;;;;;;8.28;95.55;96682.63;5073662;28;19952;-73
2023/01/02 07:15:35;;;;;;;;;;;;;;;8.26;95.65;96693.28;5073228;28;19967;-73
2023/01/02 07:18:01;;;;;;;;;;;;;;;8.27;95.14;96686.22;5073678;28;20369;-74
2023/01/02 07:20:27;;;;;;;;;;;;;;;8.27;95.38;96694.91;5073427;28;20476;-73
2023/01/02 07:22:53;;;;;;;;;;;;;;;8.29;95.75;96692.91;5073640;28;20004;-74
2023/01/02 07:25:19;;;;;;;;;;;;;;;8.28;95.86;96696.50;5055632;28;20320;-73
2023/01/02 07:27:46;;;;;;;;;;;;;;;8.27;95.20;96692.28;5073284;28;19952;-73
2023/01/02 07:30:12;;;;;;;;;;;;;;;8.29;95.27;96698.13;5073542;28;19964;-73
2023/01/02 07:32:38;;;;;;;;;;;;;;;8.33;94.62;96677.59;5073538;28;19961;-74
2023/01/02 07:35:04;;;;;;;;;;;;;;;8.36;95.06;96692.06;5073378;28;19980;-74
2023/01/02 07:37:30;;;;;;;;;;;;;;;8.37;94.77;96691.09;5073650;28;19972;-75
2023/01/02 07:39:56;;;;;;;;;;;;;;;8.39;94.26;96691.69;5076217;28;20308;-75
2023/01/02 07:42:22;;;;;;;;;;;;;;;8.41;93.55;96687.09;5077548;28;20003;-75
2023/01/02 07:44:48;;;;;;;;;;;;;;;8.43;93.65;96693.75;5077588;28;20323;-74
2023/01/02 07:47:13;;;;;;;;;;;;;;;8.47;92.95;96691.53;5077434;28;19958;-75
2023/01/02 07:49:39;;;;;;;;;;;;;;;8.51;92.54;96696.19;5077121;28;19950;-75
2023/01/02 07:52:07;;;;;;;;;;;;;;;8.57;91.92;96686.75;5077155;28;19957;-75
2023/01/02 07:54:33;;;;;;;;;;;;;;;8.61;92.10;96690.56;5059485;28;20429;-76
2023/01/02 07:56:59;;;;;;;;;;;;;;;8.62;92.08;96697.41;5077344;28;19957;-75
2023/01/02 07:59:25;;;;;;;;;;;;;;;8.60;92.10;96691.56;5077535;28;20000;-75
2023/01/02 08:01:51;;;;;;;;;;;;;;;8.61;92.59;96703.66;5076907;28;20405;-74
2023/01/02 08:04:17;;;;;;;;;;;;;;;8.60;92.32;96703.84;5059333;28;20008;-74
2023/01/02 08:06:43;;;;;;;;;;;;;;;8.60;92.89;96717.69;5076912;28;20000;-74
2023/01/02 08:09:08;;;;;;;;;;;;;;;8.60;92.41;96725.53;5059278;28;20309;-77
2023/01/02 08:11:34;;;;;;;;;;;;;;;8.60;91.91;96714.28;5076743;28;19953;-74
2023/01/02 08:14:00;;;;;;;;;;;;;;;8.62;91.80;96714.91;5076930;28;19966;-74
2023/01/02 08:16:26;;;;;;;;;;;;;;;8.64;92.49;96718.91;5076817;28;20062;-74
2023/01/02 08:18:54;;;;;;;;;;;;;;;8.64;92.61;96720.75;5076685;28;19955;-74
2023/01/02 08:21:21;;;;;;;;;;;;;;;8.65;92.41;96719.72;5076095;28;19957;-74
2023/01/02 08:23:47;;;;;;;;;;;;;;;8.66;92.67;96723.97;5076613;28;19952;-74
2023/01/02 08:26:13;;;;;;;;;;;;;;;8.68;92.54;96724.56;5076485;28;20372;-74
2023/01/02 08:28:39;;;;;;;;;;;;;;;8.68;92.21;96722.75;5076644;28;19993;-74
2023/01/02 08:31:10;;;;;;;;;;;;;;;8.71;92.00;96727.59;5076435;28;19963;-74
2023/01/02 08:33:36;;;;;;;;;;;;;;;8.73;91.97;96717.75;5076402;28;19945;-74
2023/01/02 08:36:02;;;;;;;;;;;;;;;8.77;91.86;96728.59;5076067;28;19964;-74
2023/01/02 08:38:28;;;;;;;;;;;;;;;8.82;92.23;96727.97;5076360;28;19955;-73
2023/01/02 08:40:56;;;;;;;;;;;;;;;8.86;92.03;96730.03;5076144;28;19960;-73
2023/01/02 08:43:22;;;;;;;;;;;;;;;8.89;91.85;96729.63;5076170;28;19958;-73
2023/01/02 08:45:47;;;;;;;;;;;;;;;8.93;92.15;96730.81;5058322;28;19950;-74
2023/01/02 08:48:13;;;;;;;;;;;;;;;8.97;91.44;96730.44;5076080;28;19974;-73
2023/01/02 08:50:39;;;;;;;;;;;;;;;8.99;92.14;96731.84;5058262;28;20032;-74
2023/01/02 08:53:05;;;;;;;;;;;;;;;9.02;91.05;96736.66;5076095;28;20473;-74
2023/01/02 08:55:31;;;;;;;;;;;;;;;9.07;91.64;96736.06;5057962;28;20316;-74
2023/01/02 08:57:57;;;;;;;;;;;;;;;9.10;91.73;96744.31;5075802;28;20018;-73
2023/01/02 09:00:22;;;;;;;;;;;;;;;9.14;92.09;96742.13;5076051;28;19957;-73
2023/01/02 09:02:48;;;;;;;;;;;;;;;9.19;91.65;96744.13;5075958;28;20095;-73
2023/01/02 09:05:14;;;;;;;;;;;;;;;9.19;91.39;96736.28;5075790;28;19963;-73
2023/01/02 09:07:42;;;;;;;;;;;;;;;9.21;92.33;96752.56;5075845;28;19956;-73
2023/01/02 09:10:08;;;;;;;;;;;;;;;9.22;90.30;96731.44;5075713;28;19959;-73
2023/01/02 09:12:35;;;;;;;;;;;;;;;9.24;91.13;96747.75;5075708;28;19956;-74
2023/01/02 09:15:01;;;;;;;;;;;;;;;9.26;91.48;96747.53;5075646;28;20416;-77
2023/01/02 09:17:27;;;;;;;;;;;;;;;9.28;90.11;96741.09;5075629;28;19955;-74
2023/01/02 09:19:53;;;;;;;;;;;;;;;9.34;90.39;96732.44;5075872;28;20300;-74
2023/01/02 09:22:19;;;;;;;;;;;;;;;9.41;90.57;96752.56;5057410;28;20000;-74
2023/01/02 09:24:45;;;;;;;;;;;;;;;9.52;88.37;96737.03;5075774;28;19977;-74
2023/01/02 09:27:11;;;;;;;;;;;;;;;9.61;89.21;96745.50;5074768;28;19961;-74
2023/01/02 09:29:37;;;;;;;;;;;;;;;9.65;89.55;96749.31;5075566;28;19957;-73
2023/01/02 09:32:03;;;;;;;;;;;;;;;9.67;88.35;96749.91;5075462;28;20327;-74
2023/01/02 09:34:29;;;;;;;;;;;;;;;9.65;88.80;96751.94;5075172;28;20424;-73
2023/01/02 09:36:55;;;;;;;;;;;;;;;9.65;89.29;96764.22;5074954;28;19980;-73
2023/01/02 09:39:21;;;;;;;;;;;;;;;9.66;88.02;96757.97;5075437;28;19957;-74
2023/01/02 09:41:51;;;;;;;;;;;;;;;9.68;88.65;96766.41;5075549;28;19962;-74
2023/01/02 09:44:21;;;;;;;;;;;;;;;9.69;88.65;96765.44;5075317;28;19950;-74
2023/01/02 09:46:51;;;;;;;;;;;;;;;9.71;88.32;96774.69;5075172;28;19956;-73
2023/01/02 09:49:20;;;;;;;;;;;;;;;9.74;87.96;96771.69;5075083;28;20420;-73
2023/01/02 09:51:46;;;;;;;;;;;;;;;9.75;86.63;96764.63;5074747;28;19945;-74
2023/01/02 09:54:32;;;;;;;;;;;;;;;9.78;87.08;96763.41;5074513;28;19953;-73
2023/01/02 09:57:18;;;;;;;;;;;;;;;9.83;87.59;96777.50;5066480;28;19954;-74
2023/01/02 09:59:49;;;;;;;;;;;;;;;9.91;87.96;96784.31;5043089;28;19956;-74
2023/01/02 10:02:22;;;;;;;;;;;;;;;10.03;86.46;96777.44;5074027;28;19950;-73
2023/01/02 10:04:59;;;;;;;;;;;;;;;10.19;85.90;96775.38;5074880;28;20438;-74
2023/01/02 10:07:40;;;;;;;;;;;;;;;10.33;85.47;96766.47;5057052;28;20320;-73
2023/01/02 10:10:13;;;;;;;;;;;;;;;10.46;84.03;96763.00;5074443;28;19960;-73
2023/01/02 10:12:39;;;;;;;;;;;;;;;10.59;83.48;96762.94;5074887;28;19958;-73
2023/01/02 10:15:09;;;;;;;;;;;;;;;10.71;83.51;96770.97;5074513;28;19965;-74
2023/01/02 10:17:39;;;;;;;;;;;;;;;10.82;84.35;96779.97;5074562;28;19948;-74
2023/01/02 10:20:13;;;;;;;;;;;;;;;10.87;82.92;96754.69;5074488;28;19957;-73
2023/01/02 10:22:42;;;;;;;;;;;;;;;10.93;80.02;96737.31;5074290;28;19962;-73
2023/01/02 10:25:28;;;;;;;;;;;;;;;11.04;83.74;96767.31;5073227;28;19961;-74
2023/01/02 10:28:18;;;;;;;;;;;;;;;11.12;78.99;96722.44;5074456;28;19954;-74
2023/01/02 10:30:53;;;;;;;;;;;;;;;11.20;80.81;96745.78;5074195;28;19949;-74
2023/01/02 10:33:25;;;;;;;;;;;;;;;11.33;81.46;96752.75;5073830;28;19952;-74
2023/01/02 10:35:59;;;;;;;;;;;;;;;11.45;75.26;96689.84;5074271;28;19969;-74
2023/01/02 10:38:28;;;;;;;;;;;;;;;11.60;78.76;96719.19;5056103;28;19978;-74
2023/01/02 10:40:53;;;;;;;;;;;;;;;11.82;79.47;96724.00;5074073;28;19956;-74
2023/01/02 10:43:19;;;;;;;;;;;;;;;12.07;78.39;96716.88;5073993;28;20080;-74
2023/01/02 10:45:45;;;;;;;;;;;;;;;12.28;78.28;96718.22;5074179;28;20669;-74
2023/01/02 10:48:11;;;;;;;;;;;;;;;12.45;77.16;96705.28;5072745;28;20007;-74
2023/01/02 10:50:44;;;;;;;;;;;;;;;12.59;74.95;96692.75;5074044;28;19952;-76
2023/01/02 10:53:31;;;;;;;;;;;;;;;12.73;77.22;96714.41;5074054;28;19951;-76
2023/01/02 10:56:00;;;;;;;;;;;;;;;12.87;75.27;96692.16;5073522;28;19958;-74
2023/01/02 10:58:27;;;;;;;;;;;;;;;12.92;69.96;96652.78;5074296;28;19959;-74
2023/01/02 11:01:17;;;;;;;;;;;;;;;12.90;71.56;96667.19;5073661;28;19957;-75
2023/01/02 11:03:43;;;;;;;;;;;;;;;12.87;73.74;96686.06;5073855;28;20422;-75
2023/01/02 11:06:17;;;;;;;;;;;;;;;12.89;75.90;96718.22;5073060;28;19962;-75
2023/01/02 11:08:43;;;;;;;;;;;;;;;12.89;72.59;96681.38;5073362;28;19946;-75
2023/01/02 11:11:13;;;;;;;;;;;;;;;12.83;73.64;96693.63;5073142;28;20475;-76
2023/01/02 11:13:46;;;;;;;;;;;;;;;12.71;75.01;96688.31;5073006;28;19956;-75
2023/01/02 11:16:13;;;;;;;;;;;;;;;12.59;72.83;96682.22;5072879;28;19964;-74
2023/01/02 11:18:44;;;;;;;;;;;;;;;12.48;74.17;96698.78;5072807;28;19954;-76
2023/01/02 11:21:10;;;;;;;;;;;;;;;12.38;74.94;96709.81;5073130;28;19959;-73
2023/01/02 11:23:35;;;;;;;;;;;;;;;12.32;77.91;96724.66;5072705;28;20013;-74
2023/01/02 11:26:02;;;;;;;;;;;;;;;12.28;76.26;96712.97;5073245;28;20000;-74
2023/01/02 11:28:30;;;;;;;;;;;;;;;12.25;78.16;96731.84;5073229;28;19950;-77
2023/01/02 11:31:01;;;;;;;;;;;;;;;12.26;73.76;96686.09;5072829;28;19957;-75
2023/01/02 11:33:28;;;;;;;;;;;;;;;12.37;77.45;96726.66;5072843;28;19952;-74
2023/01/02 11:36:03;;;;;;;;;;;;;;;12.54;74.27;96703.16;5073084;28;19974;-75
2023/01/02 11:38:59;;;;;;;;;;;;;;;12.72;74.43;96704.91;5073263;28;20440;-75
2023/01/02 11:44:31;;;;;;;;;;;;;;;13.00;74.27;96704.28;5072829;28;19976;-74
2023/01/02 11:46:58;;;;;;;;;;;;;;;13.07;71.66;96680.50;5073702;28;19958;-74
2023/01/02 11:49:25;;;;;;;;;;;;;;;13.14;72.03;96675.91;5072804;28;19942;-74
2023/01/02 11:52:00;;;;;;;;;;;;;;;13.14;71.26;96676.69;5054694;28;19966;-74
2023/01/02 11:54:32;;;;;;;;;;;;;;;13.15;69.32;96661.72;5072821;28;19956;-75
2023/01/02 11:56:59;;;;;;;;;;;;;;;13.11;70.49;96669.28;5072722;28;19944;-76
2023/01/02 11:59:24;;;;;;;;;;;;;;;13.08;68.64;96655.75;5072928;28;20414;-73
2023/01/02 12:02:04;;;;;;;;;;;;;;;13.09;68.72;96646.84;5072433;28;20007;-74
2023/01/02 12:04:30;;;;;;;;;;;;;;;13.15;71.52;96691.47;5072428;28;20331;-74
2023/01/02 12:06:59;;;;;;;;;;;;;;;13.27;73.25;96707.31;5054437;28;19966;-74
2023/01/02 12:09:44;;;;;;;;;;;;;;;13.38;71.75;96680.19;5073341;28;19949;-75
2023/01/02 12:12:31;;;;;;;;;;;;;;;13.51;71.08;96668.59;5072553;28;19955;-74
2023/01/02 12:15:10;;;;;;;;;;;;;;;13.60;72.23;96677.75;5072401;28;19968;-74
2023/01/02 12:17:41;;;;;;;;;;;;;;;13.67;67.22;96614.41;5072334;28;19961;-74
2023/01/02 12:20:10;;;;;;;;;;;;;;;13.75;69.60;96642.22;5072648;28;19960;-74
2023/01/02 12:22:48;;;;;;;;;;;;;;;13.86;67.58;96622.94;5072421;28;19963;-74
2023/01/02 12:25:33;;;;;;;;;;;;;;;13.99;67.94;96622.66;5073414;28;19956;-75
2023/01/02 12:28:04;;;;;;;;;;;;;;;14.16;67.89;96635.88;5076150;28;19956;-74
2023/01/02 12:30:33;;;;;;;;;;;;;;;14.31;67.86;96660.94;5075778;28;20293;-74
2023/01/02 12:32:59;;;;;;;;;;;;;;;14.39;66.68;96650.81;5058027;28;19955;-75
2023/01/02 12:35:39;;;;;;;;;;;;;;;14.41;64.38;96655.88;5075906;28;19967;-76
2023/01/02 12:38:10;;;;;;;;;;;;;;;14.46;67.06;96692.88;5064078;28;19982;-75
2023/01/02 12:40:38;;;;;;;;;;;;;;;14.55;66.39;96694.16;5076037;28;19956;-75
2023/01/02 12:43:04;;;;;;;;;;;;;;;14.61;64.59;96692.38;5074924;28;20440;-74
2023/01/02 12:45:38;;;;;;;;;;;;;;;14.62;60.99;96678.16;5075042;28;20270;-75
2023/01/02 12:48:23;;;;;;;;;;;;;;;14.63;60.34;96734.38;5075371;28;20429;-75
2023/01/02 12:50:52;;;;;;;;;;;;;;;14.58;60.61;96753.56;5075351;28;19954;-76
2023/01/02 12:53:37;;;;;;;;;;;;;;;14.53;57.45;96761.34;5075744;28;19964;-76
2023/01/02 12:56:05;;;;;;;;;;;;;;;14.44;55.35;96763.56;5075213;28;19971;-75
2023/01/02 12:58:37;;;;;;;;;;;;;;;14.45;56.34;96775.72;5075988;28;19967;-75
2023/01/02 13:01:22;;;;;;;;;;;;;;;14.49;55.56;96774.22;5075104;28;19963;-75
2023/01/02 13:03:47;;;;;;;;;;;;;;;14.51;55.21;96781.91;5075275;28;20381;-75
2023/01/02 13:06:13;;;;;;;;;;;;;;;14.54;55.58;96782.25;5063423;28;19951;-75
2023/01/02 13:08:42;;;;;;;;;;;;;;;14.60;54.64;96770.78;5075237;28;19949;-75
2023/01/02 13:11:09;;;;;;;;;;;;;;;14.66;56.21;96786.69;5075420;28;20296;-75